createdAt,value
2023-01-22T12:51:43.006Z,102230.19
2023-01-22T12:54:22.116Z,102233.22
2023-01-22T12:56:50.937Z,102230.81
2023-01-22T12:59:32.653Z,102223.41
2023-01-22T13:02:01.614Z,102223.59
2023-01-22T13:04:30.524Z,102232.75
2023-01-22T13:07:07.036Z,102227.69
2023-01-22T13:09:37.755Z,102224.53
2023-01-22T13:12:26.914Z,102213.00
2023-01-22T13:14:55.099Z,102220.06
2023-01-22T13:17:25.675Z,102220.22
2023-01-22T13:19:53.427Z,102230.09
2023-01-22T13:22:25.815Z,102224.22
2023-01-22T13:24:55.671Z,102225.91
2023-01-22T13:27:26.386Z,102231.19
2023-01-22T13:29:54.121Z,102226.84
2023-01-22T13:32:23.385Z,102229.97
2023-01-22T13:34:51.074Z,102226.38
2023-01-22T13:37:23.668Z,102229.31
2023-01-22T13:39:51.681Z,102231.91
2023-01-22T13:42:19.629Z,102226.22
2023-01-22T13:44:50.880Z,102224.19
2023-01-22T13:47:28.582Z,102218.88
2023-01-22T13:49:56.634Z,102221.41
2023-01-22T13:52:26.110Z,102229.03
2023-01-22T13:54:59.039Z,102226.13
2023-01-22T13:57:26.784Z,102229.78
2023-01-22T14:02:47.382Z,102232.16
2023-01-22T14:05:18.614Z,102230.34
2023-01-22T14:07:47.930Z,102227.13
2023-01-22T14:10:18.227Z,102234.09
2023-01-22T14:12:46.096Z,102240.16
2023-01-22T14:15:18.871Z,102241.47
2023-01-22T14:17:48.510Z,102247.22
2023-01-22T14:20:17.765Z,102243.31
2023-01-22T14:22:47.009Z,102253.00
2023-01-22T14:25:14.559Z,102244.19
2023-01-22T14:27:44.769Z,102256.59
2023-01-22T14:30:15.834Z,102264.53
2023-01-22T14:32:43.810Z,102259.16
2023-01-22T14:35:17.607Z,102265.19
2023-01-22T14:37:47.057Z,102276.47
2023-01-22T14:40:17.551Z,102269.28
2023-01-22T14:42:46.681Z,102271.22
2023-01-22T14:45:16.560Z,102275.78
2023-01-22T14:47:44.371Z,102267.88
2023-01-22T14:50:12.943Z,102274.19
2023-01-22T14:52:40.730Z,102276.47
2023-01-22T14:55:10.372Z,102273.50
2023-01-22T14:57:38.094Z,102287.91
2023-01-22T15:00:07.383Z,102294.75
2023-01-22T15:02:37.397Z,102287.69
2023-01-22T15:05:05.273Z,102293.34
2023-01-22T15:07:34.188Z,102294.28
2023-01-22T15:10:02.246Z,102295.06
2023-01-22T15:12:31.409Z,102282.94
2023-01-22T15:14:59.298Z,102292.34
2023-01-22T15:17:26.984Z,102287.44
2023-01-22T15:19:54.771Z,102286.63
2023-01-22T15:22:22.347Z,102285.13
2023-01-22T15:24:49.909Z,102289.75
2023-01-22T15:27:19.086Z,102287.81
2023-01-22T15:29:48.220Z,102304.28
2023-01-22T15:32:15.839Z,102303.47
2023-01-22T15:34:43.397Z,102309.94
2023-01-22T15:37:13.790Z,102307.91
2023-01-22T15:39:41.650Z,102312.13
2023-01-22T15:42:09.614Z,102317.41
2023-01-22T15:44:37.656Z,102311.41
2023-01-22T15:47:06.956Z,102318.84
2023-01-22T15:49:34.954Z,102305.81
2023-01-22T15:52:02.663Z,102309.91
2023-01-22T15:54:30.364Z,102311.03
2023-01-22T15:56:58.282Z,102313.78
2023-01-22T15:59:25.828Z,102311.50
2023-01-22T16:01:53.554Z,102310.78
2023-01-22T16:04:22.427Z,102319.78
2023-01-22T16:06:51.571Z,102314.72
2023-01-22T16:09:19.313Z,102322.94
2023-01-22T16:11:46.888Z,102319.06
2023-01-22T16:14:14.904Z,102327.03
2023-01-22T16:16:42.867Z,102320.16
2023-01-22T16:19:13.208Z,102314.25
2023-01-22T16:21:43.494Z,102307.53
2023-01-22T16:24:11.177Z,102314.00
2023-01-22T16:26:38.952Z,102308.25
2023-01-22T16:29:07.140Z,102320.28
2023-01-22T16:31:36.365Z,102322.19
2023-01-22T16:34:09.192Z,102315.94
2023-01-22T16:36:37.373Z,102317.66
2023-01-22T16:39:06.862Z,102314.06
2023-01-22T16:41:35.736Z,102310.53
2023-01-22T16:44:07.838Z,102323.66
2023-01-22T16:46:39.714Z,102310.44
2023-01-22T16:49:09.047Z,102312.47
2023-01-22T16:51:38.706Z,102306.06
2023-01-22T16:54:08.645Z,102312.56
2023-01-22T16:56:36.515Z,102309.88
2023-01-22T16:59:04.153Z,102305.81
2023-01-22T17:01:32.144Z,102316.88
2023-01-22T17:03:59.714Z,102307.53
2023-01-22T17:06:28.825Z,102310.41
2023-01-22T17:08:56.636Z,102319.56
2023-01-22T17:11:25.910Z,102316.19
2023-01-22T17:13:56.148Z,102329.66
2023-01-22T17:16:24.155Z,102321.72
2023-01-22T17:18:51.990Z,102324.75
2023-01-22T17:21:20.241Z,102328.44
2023-01-22T17:23:48.161Z,102330.03
2023-01-22T17:26:16.816Z,102333.72
2023-01-22T17:28:46.357Z,102334.44
2023-01-22T17:31:19.020Z,102330.84
2023-01-22T17:33:47.006Z,102335.88
2023-01-22T17:36:16.901Z,102337.31
2023-01-22T17:38:44.512Z,102332.25
2023-01-22T17:41:16.961Z,102341.66
2023-01-22T17:43:47.560Z,102343.38
2023-01-22T17:46:16.768Z,102343.38
2023-01-22T17:48:45.238Z,102341.19
2023-01-22T17:51:14.402Z,102351.09
2023-01-22T17:53:47.249Z,102344.81
2023-01-22T17:56:16.437Z,102345.25
2023-01-22T17:58:58.184Z,102348.31
2023-01-22T18:01:30.004Z,102353.81
2023-01-22T18:03:58.380Z,102356.34
2023-01-22T18:06:25.945Z,102357.09
2023-01-22T18:08:53.692Z,102359.50
2023-01-22T18:11:24.122Z,102358.81
2023-01-22T18:13:55.597Z,102368.44
2023-01-22T18:16:24.117Z,102377.09
2023-01-22T18:18:53.028Z,102360.50
2023-01-22T18:21:22.054Z,102358.56
2023-01-22T18:23:50.034Z,102363.34
2023-01-22T18:26:22.839Z,102359.88
2023-01-22T18:28:50.703Z,102370.72
2023-01-22T18:31:22.498Z,102372.19
2023-01-22T18:33:51.079Z,102377.59
2023-01-22T18:36:20.374Z,102369.53
2023-01-22T18:38:48.504Z,102375.91
2023-01-22T18:41:18.772Z,102375.53
2023-01-22T18:43:48.332Z,102374.69
2023-01-22T18:46:16.844Z,102382.88
2023-01-22T18:48:46.017Z,102380.97
2023-01-22T18:51:14.249Z,102383.84
2023-01-22T18:53:42.693Z,102379.63
2023-01-22T18:56:11.968Z,102388.16
2023-01-22T18:58:42.438Z,102378.06
2023-01-22T19:01:12.714Z,102381.69
2023-01-22T19:03:41.437Z,102383.84
2023-01-22T19:06:14.499Z,102385.28
2023-01-22T19:08:43.537Z,102389.16
2023-01-22T19:11:12.226Z,102387.69
2023-01-22T19:13:40.462Z,102391.28
2023-01-22T19:16:10.874Z,102393.94
2023-01-22T19:18:39.985Z,102392.47
2023-01-22T19:21:11.241Z,102395.63
2023-01-22T19:23:38.951Z,102399.63
2023-01-22T19:26:08.387Z,102400.31
2023-01-22T19:28:35.992Z,102407.44
2023-01-22T19:31:03.651Z,102408.75
2023-01-22T19:33:31.464Z,102409.75
2023-01-22T19:35:59.252Z,102411.16
2023-01-22T19:38:28.635Z,102409.59
2023-01-22T19:40:56.164Z,102409.94
2023-01-22T19:43:23.833Z,102411.88
2023-01-22T19:45:51.415Z,102412.72
2023-01-22T19:48:20.239Z,102414.56
2023-01-22T19:50:47.897Z,102416.31
2023-01-22T19:53:15.637Z,102422.09
2023-01-22T19:55:44.966Z,102416.31
2023-01-22T19:58:12.810Z,102419.44
2023-01-22T20:00:40.897Z,102423.91
2023-01-22T20:03:09.529Z,102423.31
